createdAt,value
2018-01-20T00:00:56.819Z,59.40
2018-01-20T00:03:32.029Z,63.92
2018-01-20T00:06:02.297Z,58.90
2018-01-20T00:08:33.292Z,61.25
2018-01-20T00:11:14.536Z,54.90
2018-01-20T00:13:46.173Z,58.03
2018-01-20T00:16:16.368Z,53.93
2018-01-20T00:18:47.413Z,48.63
2018-01-20T00:21:18.341Z,49.40
2018-01-20T00:23:49.250Z,46.15
2018-01-20T00:26:23.533Z,48.47
2018-01-20T00:28:53.700Z,43.33
2018-01-20T00:31:24.187Z,44.97
2018-01-20T00:33:54.639Z,49.53
2018-01-20T00:36:25.050Z,49.30
2018-01-20T00:38:55.276Z,53.67
2018-01-20T00:41:25.749Z,44.03
2018-01-20T00:43:56.727Z,45.60
2018-01-20T00:46:26.900Z,47.17
2018-01-20T00:48:57.288Z,48.43
2018-01-20T00:51:27.416Z,48.97
2018-01-20T00:53:57.645Z,47.60
2018-01-20T00:56:27.841Z,48.78
2018-01-20T00:58:58.109Z,46.40
2018-01-20T01:01:29.321Z,46.37
2018-01-20T01:04:00.541Z,47.40
2018-01-20T01:06:30.755Z,50.17
2018-01-20T01:09:01.057Z,55.67
2018-01-20T01:11:31.565Z,55.37
2018-01-20T01:14:01.797Z,56.25
2018-01-20T01:16:32.758Z,59.17
2018-01-20T01:19:02.968Z,54.38
2018-01-20T01:21:33.832Z,53.97
2018-01-20T01:24:04.329Z,43.93
2018-01-20T01:26:34.732Z,42.23
2018-01-20T01:29:04.889Z,44.07
2018-01-20T01:31:35.212Z,42.40
2018-01-20T01:34:05.892Z,42.37
2018-01-20T01:36:36.615Z,37.90
2018-01-20T01:39:06.846Z,38.97
2018-01-20T01:41:37.360Z,41.58
2018-01-20T01:44:07.916Z,44.85
2018-01-20T01:46:38.961Z,50.10
2018-01-20T01:49:09.992Z,43.87
2018-01-20T01:51:40.663Z,53.00
2018-01-20T01:54:11.342Z,48.20
2018-01-20T01:56:42.534Z,48.87
2018-01-20T01:59:13.311Z,50.27
2018-01-20T02:01:43.959Z,52.43
2018-01-20T02:04:14.330Z,53.73
2018-01-20T02:06:45.230Z,59.80
2018-01-20T02:09:16.482Z,60.47
2018-01-20T02:11:46.906Z,60.72
2018-01-20T02:14:17.382Z,67.60
2018-01-20T02:16:47.787Z,66.93
2018-01-20T02:19:18.392Z,70.25
2018-01-20T02:21:49.051Z,77.37
2018-01-20T02:24:19.500Z,84.68
2018-01-20T02:26:50.700Z,76.95
2018-01-20T02:29:21.094Z,79.27
2018-01-20T02:31:51.456Z,76.75
2018-01-20T02:34:22.307Z,69.28
2018-01-20T02:36:52.906Z,77.83
2018-01-20T02:39:23.295Z,86.70
2018-01-20T02:41:55.219Z,80.03
2018-01-20T02:44:25.457Z,69.78
2018-01-20T02:46:55.781Z,75.37
2018-01-20T02:49:26.681Z,79.97
2018-01-20T02:51:57.059Z,83.43
2018-01-20T02:54:27.377Z,75.37
2018-01-20T02:56:57.930Z,72.47
2018-01-20T02:59:28.444Z,74.05
2018-01-20T03:01:58.719Z,69.20
2018-01-20T03:04:29.456Z,74.45
2018-01-20T03:07:00.100Z,82.33
2018-01-20T03:09:30.512Z,79.07
2018-01-20T03:12:01.241Z,73.72
2018-01-20T03:14:31.510Z,76.90
2018-01-20T03:17:01.665Z,71.00
2018-01-20T03:19:32.693Z,74.50
2018-01-20T03:22:03.641Z,79.47
2018-01-20T03:24:33.869Z,75.70
2018-01-20T03:27:04.528Z,76.37
2018-01-20T03:29:34.721Z,77.67
2018-01-20T03:32:04.864Z,77.93
2018-01-20T03:34:35.761Z,81.23
2018-01-20T03:37:10.485Z,81.53
2018-01-20T03:39:42.076Z,80.70
2018-01-20T03:42:12.664Z,82.03
2018-01-20T03:44:43.601Z,83.20
2018-01-20T03:47:13.958Z,87.93
2018-01-20T03:49:44.290Z,82.07
2018-01-20T03:52:14.946Z,84.23
2018-01-20T03:54:45.293Z,75.47
2018-01-20T03:57:16.231Z,79.07
2018-01-20T03:59:47.862Z,81.17
2018-01-20T04:02:18.362Z,81.40
2018-01-20T04:04:48.801Z,79.53
2018-01-20T04:07:19.263Z,77.25
2018-01-20T04:09:50.200Z,80.03
2018-01-20T04:12:20.752Z,80.13
2018-01-20T04:14:51.238Z,85.90
2018-01-20T04:17:21.694Z,78.80
2018-01-20T04:19:52.657Z,78.23
2018-01-20T04:22:22.878Z,76.62
2018-01-20T04:24:53.384Z,82.60
2018-01-20T04:27:24.121Z,79.75
2018-01-20T04:29:54.463Z,78.60
2018-01-20T04:32:25.343Z,81.90
2018-01-20T04:34:56.106Z,73.45
2018-01-20T04:37:26.675Z,77.18
2018-01-20T04:39:56.937Z,73.67
2018-01-20T04:42:27.557Z,68.43
2018-01-20T04:44:57.739Z,69.13
2018-01-20T04:47:27.962Z,69.90
2018-01-20T04:49:58.910Z,69.07
2018-01-20T04:52:29.101Z,71.67
2018-01-20T04:54:59.669Z,62.00
2018-01-20T04:57:30.304Z,65.83
2018-01-20T05:00:00.511Z,67.73
2018-01-20T05:02:31.964Z,66.07
2018-01-20T05:05:03.051Z,63.00
2018-01-20T05:07:34.064Z,63.20
2018-01-20T05:10:05.024Z,63.33
2018-01-20T05:12:42.925Z,68.47
2018-01-20T05:15:13.537Z,67.10
2018-01-20T05:17:43.912Z,70.23
2018-01-20T05:20:15.336Z,71.70
2018-01-20T05:22:45.603Z,63.37
2018-01-20T05:25:15.836Z,66.03
2018-01-20T05:27:47.376Z,64.33
2018-01-20T05:30:17.643Z,59.60
2018-01-20T05:32:48.727Z,62.47
2018-01-20T05:35:19.436Z,63.28
2018-01-20T05:37:49.787Z,56.72
2018-01-20T05:40:21.248Z,59.80
2018-01-20T05:42:52.293Z,52.97
2018-01-20T05:45:24.646Z,55.97
2018-01-20T05:47:56.889Z,55.08
2018-01-20T05:50:27.388Z,55.53
2018-01-20T05:52:57.622Z,54.63
2018-01-20T05:55:28.692Z,54.90
2018-01-20T05:57:59.139Z,49.23
2018-01-20T06:00:29.557Z,55.87
2018-01-20T06:03:00.015Z,52.20
2018-01-20T06:05:30.210Z,53.40
2018-01-20T06:08:00.513Z,54.42
2018-01-20T06:10:30.845Z,60.07
2018-01-20T06:13:01.225Z,56.53
2018-01-20T06:15:31.801Z,58.70
2018-01-20T06:18:02.107Z,58.60
2018-01-20T06:20:32.330Z,65.22
2018-01-20T06:23:02.617Z,66.93
2018-01-20T06:25:33.774Z,64.70
2018-01-20T06:28:04.285Z,64.57
2018-01-20T06:30:34.658Z,72.37
2018-01-20T06:33:05.249Z,66.68
2018-01-20T06:35:37.209Z,65.30
2018-01-20T06:38:07.385Z,65.57
2018-01-20T06:40:39.873Z,67.90
2018-01-20T06:43:11.477Z,62.75
2018-01-20T06:45:41.844Z,70.35
2018-01-20T06:48:12.477Z,69.00
2018-01-20T06:50:43.144Z,67.22
2018-01-20T06:53:13.581Z,60.13
2018-01-20T06:55:44.123Z,64.62
2018-01-20T06:58:14.771Z,64.80
2018-01-20T07:00:45.868Z,66.97
2018-01-20T07:03:16.134Z,67.30
2018-01-20T07:05:46.378Z,64.25
2018-01-20T07:08:16.604Z,59.93
2018-01-20T07:10:48.095Z,66.43
2018-01-20T07:13:47.191Z,73.30
2018-01-20T07:16:30.753Z,67.77
2018-01-20T07:19:01.171Z,70.00
2018-01-20T07:21:33.036Z,66.70
2018-01-20T07:24:06.057Z,63.85
2018-01-20T07:26:43.441Z,72.25
2018-01-20T07:29:15.200Z,62.05
2018-01-20T07:31:46.864Z,60.43
2018-01-20T07:34:20.461Z,66.70
2018-01-20T07:36:51.267Z,67.87
2018-01-20T07:39:23.176Z,63.00
2018-01-20T07:41:54.716Z,68.00
2018-01-20T07:44:24.917Z,65.53
2018-01-20T07:47:03.117Z,60.80
2018-01-20T07:49:33.717Z,60.27
2018-01-20T07:52:04.650Z,68.17
2018-01-20T07:54:35.134Z,61.63
2018-01-20T07:57:08.931Z,57.77
2018-01-20T07:59:45.113Z,61.13
2018-01-20T08:02:16.912Z,61.73
2018-01-20T08:04:49.234Z,62.53
2018-01-20T08:07:20.277Z,61.97
2018-01-20T08:09:51.872Z,65.07
2018-01-20T08:12:22.178Z,65.47
2018-01-20T08:14:52.696Z,58.73
2018-01-20T08:17:22.956Z,60.73
2018-01-20T08:19:54.243Z,64.20
2018-01-20T08:22:25.120Z,66.93
2018-01-20T08:24:55.417Z,74.77
2018-01-20T08:27:25.888Z,62.23
2018-01-20T08:29:56.056Z,63.33
2018-01-20T08:32:26.506Z,56.77
2018-01-20T08:34:56.736Z,60.53
2018-01-20T08:37:27.182Z,56.20
2018-01-20T08:39:57.705Z,56.60
2018-01-20T08:42:28.513Z,57.70
2018-01-20T08:44:58.990Z,54.50
2018-01-20T08:47:30.327Z,57.17
2018-01-20T08:50:01.808Z,56.03
2018-01-20T08:52:32.080Z,56.50
2018-01-20T08:55:02.475Z,60.90
2018-01-20T08:57:33.565Z,58.77
2018-01-20T09:00:04.032Z,56.27
2018-01-20T09:02:34.465Z,54.73
2018-01-20T09:05:05.092Z,57.60
2018-01-20T09:07:36.073Z,54.90
2018-01-20T09:10:06.326Z,57.40
2018-01-20T09:12:36.987Z,54.93
2018-01-20T09:15:07.246Z,56.17
2018-01-20T09:17:37.473Z,57.60
2018-01-20T09:20:08.092Z,55.87
2018-01-20T09:22:38.352Z,52.37
2018-01-20T09:25:09.576Z,50.20
2018-01-20T09:27:40.220Z,53.40
2018-01-20T09:30:10.535Z,51.33
2018-01-20T09:32:42.494Z,54.50
2018-01-20T09:35:12.629Z,39.77
2018-01-20T09:37:43.129Z,38.33
2018-01-20T09:40:13.757Z,40.47
2018-01-20T09:42:45.431Z,39.73
2018-01-20T09:45:15.848Z,33.60
2018-01-20T09:47:47.086Z,36.17
2018-01-20T09:50:17.743Z,35.10
2018-01-20T09:52:48.860Z,34.10
2018-01-20T09:55:19.281Z,34.53
2018-01-20T09:57:50.161Z,30.03
2018-01-20T10:00:21.292Z,32.20
2018-01-20T10:02:51.796Z,35.97
2018-01-20T10:05:23.536Z,38.10
2018-01-20T10:07:54.075Z,34.03
2018-01-20T10:10:25.206Z,33.00
2018-01-20T10:12:55.980Z,34.40
2018-01-20T10:15:28.951Z,35.30
2018-01-20T10:18:00.693Z,30.80
2018-01-20T10:20:31.260Z,33.80
2018-01-20T10:23:04.120Z,35.80
2018-01-20T10:25:37.583Z,32.77
2018-01-20T10:28:09.958Z,30.67
2018-01-20T10:30:40.833Z,34.47
2018-01-20T10:33:12.472Z,36.63
2018-01-20T10:35:42.932Z,34.00
2018-01-20T10:38:14.225Z,37.93
2018-01-20T10:40:45.524Z,33.50
2018-01-20T10:43:16.154Z,33.90
2018-01-20T10:45:46.753Z,39.47
2018-01-20T10:48:17.572Z,34.47
2018-01-20T10:50:48.902Z,36.10
2018-01-20T10:53:19.347Z,32.80
2018-01-20T10:55:49.826Z,31.87
2018-01-20T10:58:20.597Z,39.57
2018-01-20T11:00:52.105Z,36.27
2018-01-20T11:03:22.689Z,36.53
2018-01-20T11:05:54.186Z,35.23
2018-01-20T11:08:24.762Z,38.00
2018-01-20T11:10:55.433Z,36.83
2018-01-20T11:13:27.871Z,35.57
2018-01-20T11:15:58.407Z,36.30
2018-01-20T11:18:29.625Z,34.97
2018-01-20T11:21:00.049Z,36.53
2018-01-20T11:23:30.379Z,33.70
2018-01-20T11:26:01.664Z,33.63
2018-01-20T11:28:32.262Z,33.53
2018-01-20T11:31:02.533Z,38.87
2018-01-20T11:33:33.621Z,34.43
2018-01-20T11:36:03.887Z,33.20
2018-01-20T11:38:35.820Z,33.83
2018-01-20T11:41:06.857Z,37.93
2018-01-20T11:43:37.285Z,36.80
2018-01-20T11:46:07.464Z,34.83
2018-01-20T11:48:37.759Z,36.30
2018-01-20T11:51:08.369Z,33.03
2018-01-20T11:53:38.978Z,36.27
2018-01-20T11:56:10.210Z,30.50
2018-01-20T11:58:41.726Z,40.50
2018-01-20T12:01:12.869Z,35.40
2018-01-20T12:03:43.646Z,41.10
2018-01-20T12:06:14.231Z,41.50
2018-01-20T12:08:44.657Z,37.47
2018-01-20T12:11:15.091Z,39.00
2018-01-20T12:13:45.443Z,38.80
2018-01-20T12:16:15.908Z,37.67
2018-01-20T12:18:46.979Z,38.50
2018-01-20T12:21:17.351Z,38.60
2018-01-20T12:27:11.212Z,38.90
2018-01-20T12:29:41.878Z,42.03
2018-01-20T12:32:12.263Z,36.80
2018-01-20T12:34:42.815Z,43.20
2018-01-20T12:37:13.531Z,39.17
2018-01-20T12:39:44.056Z,39.10
2018-01-20T12:42:14.437Z,38.57
2018-01-20T12:44:45.113Z,37.53
2018-01-20T12:47:15.356Z,38.37
2018-01-20T12:49:45.706Z,36.80
2018-01-20T12:52:17.249Z,37.43
2018-01-20T12:54:47.526Z,35.70
2018-01-20T12:57:20.808Z,35.67
2018-01-20T12:59:51.344Z,32.17
2018-01-20T13:02:21.700Z,41.50
2018-01-20T13:04:52.174Z,32.17
2018-01-20T13:07:23.131Z,38.43
2018-01-20T13:09:54.089Z,37.43
2018-01-20T13:12:25.477Z,38.60
2018-01-20T13:14:56.513Z,40.90
2018-01-20T13:17:27.525Z,42.47
2018-01-20T13:19:58.117Z,36.97
2018-01-20T13:22:28.529Z,43.97
2018-01-20T13:24:59.583Z,43.57
2018-01-20T13:27:30.124Z,36.47
2018-01-20T13:30:00.363Z,39.43
2018-01-20T13:32:32.669Z,39.53
2018-01-20T13:35:03.150Z,37.57
2018-01-20T13:37:33.384Z,33.87
2018-01-20T13:40:10.148Z,37.50
2018-01-20T13:42:41.759Z,38.47
2018-01-20T13:45:17.110Z,39.30
2018-01-20T13:47:47.429Z,37.17
2018-01-20T13:50:17.993Z,41.30
2018-01-20T13:52:48.358Z,33.73
2018-01-20T13:55:18.681Z,38.83
2018-01-20T13:57:49.046Z,41.40
2018-01-20T14:00:19.556Z,44.03
2018-01-20T14:02:50.035Z,40.40
2018-01-20T14:05:20.655Z,42.53
2018-01-20T14:07:52.818Z,44.17
2018-01-20T14:10:24.494Z,42.77
2018-01-20T14:12:55.453Z,46.67
2018-01-20T14:15:27.090Z,43.00
2018-01-20T14:17:58.849Z,42.90
2018-01-20T14:20:30.305Z,39.67
2018-01-20T14:23:00.746Z,40.77
2018-01-20T14:25:40.284Z,39.80
2018-01-20T14:28:11.011Z,41.43
2018-01-20T14:30:41.510Z,40.50
2018-01-20T14:33:11.841Z,43.47
2018-01-20T14:35:42.174Z,40.97
2018-01-20T14:38:12.897Z,49.30
2018-01-20T14:40:43.477Z,43.13
2018-01-20T14:43:13.777Z,43.57
2018-01-20T14:45:46.147Z,41.80
2018-01-20T14:48:17.621Z,44.00
2018-01-20T14:50:48.801Z,47.37
2018-01-20T14:53:19.251Z,47.93
2018-01-20T14:55:50.704Z,44.30
2018-01-20T14:58:21.208Z,46.40
2018-01-20T15:00:51.616Z,43.77
2018-01-20T15:03:22.018Z,43.03
2018-01-20T15:05:52.572Z,42.43
2018-01-20T15:08:22.898Z,42.63
2018-01-20T15:10:57.561Z,46.43
2018-01-20T15:13:28.658Z,44.13
2018-01-20T15:16:01.623Z,47.53
2018-01-20T15:18:32.702Z,43.90
2018-01-20T15:21:03.132Z,51.40
2018-01-20T15:23:33.492Z,44.60
2018-01-20T15:26:07.880Z,49.27
2018-01-20T15:28:38.457Z,46.80
2018-01-20T15:31:09.165Z,50.47
2018-01-20T15:33:39.865Z,44.93
2018-01-20T15:36:13.787Z,49.93
2018-01-20T15:38:47.372Z,48.63
2018-01-20T15:41:18.052Z,43.30
2018-01-20T15:43:58.525Z,43.37
2018-01-20T15:46:37.002Z,47.10
2018-01-20T15:49:13.883Z,43.90
2018-01-20T15:51:47.026Z,47.97
2018-01-20T15:54:19.504Z,47.70
2018-01-20T15:56:52.604Z,48.40
2018-01-20T15:59:24.880Z,51.83
2018-01-20T16:01:55.514Z,45.30
2018-01-20T16:04:26.832Z,45.03
2018-01-20T16:06:57.381Z,51.27
2018-01-20T16:09:27.844Z,50.97
2018-01-20T16:11:59.856Z,48.27
2018-01-20T16:14:30.435Z,51.67
2018-01-20T16:17:00.995Z,49.80
2018-01-20T16:19:32.010Z,54.23
2018-01-20T16:22:03.279Z,54.63
2018-01-20T16:24:33.633Z,54.20
2018-01-20T16:27:04.485Z,82.63
2018-01-20T16:29:35.986Z,66.50
2018-01-20T16:32:11.068Z,68.03
2018-01-20T16:34:45.120Z,64.97
2018-01-20T16:37:16.120Z,58.53
2018-01-20T16:39:46.744Z,65.77
2018-01-20T16:42:17.621Z,58.63
2018-01-20T16:44:49.230Z,62.87
2018-01-20T16:47:21.076Z,72.90
2018-01-20T16:49:52.382Z,66.63
2018-01-20T16:52:24.055Z,66.07
2018-01-20T16:54:58.443Z,71.70
2018-01-20T16:57:28.818Z,64.93
2018-01-20T16:59:59.950Z,61.20
2018-01-20T17:02:30.347Z,62.07
2018-01-20T17:05:00.664Z,60.53
2018-01-20T17:07:31.158Z,58.50
2018-01-20T17:10:01.653Z,57.67
2018-01-20T17:12:31.950Z,58.93
2018-01-20T17:15:02.424Z,58.17
2018-01-20T17:17:32.755Z,55.60
2018-01-20T17:20:03.012Z,60.43
2018-01-20T17:22:34.229Z,54.80
2018-01-20T17:25:04.392Z,63.23
2018-01-20T17:27:34.977Z,60.37
2018-01-20T17:30:05.206Z,57.93
2018-01-20T17:32:36.140Z,58.90
2018-01-20T17:35:06.661Z,62.27
2018-01-20T17:37:36.920Z,61.90
2018-01-20T17:40:07.199Z,68.37
2018-01-20T17:42:37.817Z,60.90
2018-01-20T17:45:10.000Z,63.40
2018-01-20T17:47:40.339Z,63.90
2018-01-20T17:50:10.802Z,60.20
2018-01-20T17:52:41.044Z,58.33
2018-01-20T17:55:11.440Z,61.57
2018-01-20T17:57:41.989Z,57.40
2018-01-20T18:00:12.998Z,55.40
2018-01-20T18:02:43.196Z,61.90
2018-01-20T18:05:13.354Z,50.03
2018-01-20T18:07:43.534Z,51.90
2018-01-20T18:10:13.734Z,58.47
2018-01-20T18:12:44.143Z,57.77
2018-01-20T18:15:14.353Z,59.50
2018-01-20T18:17:44.525Z,56.40
2018-01-20T18:20:14.998Z,65.53
2018-01-20T18:22:45.249Z,56.80
2018-01-20T18:25:15.385Z,60.17
2018-01-20T18:27:45.843Z,57.63
2018-01-20T18:30:16.839Z,57.40
2018-01-20T18:32:47.471Z,59.83
2018-01-20T18:35:17.729Z,56.70
2018-01-20T18:37:47.994Z,61.43
2018-01-20T18:40:18.177Z,63.67
2018-01-20T18:42:48.852Z,61.13
2018-01-20T18:45:19.046Z,57.67
2018-01-20T18:47:49.249Z,62.00
2018-01-20T18:50:19.737Z,65.73
2018-01-20T18:52:49.990Z,76.27
2018-01-20T18:55:20.945Z,71.03
2018-01-20T18:57:51.084Z,63.30
2018-01-20T19:00:22.066Z,70.57
2018-01-20T19:02:53.363Z,64.07
2018-01-20T19:05:23.572Z,62.77
2018-01-20T19:07:53.750Z,65.27
2018-01-20T19:10:25.023Z,66.97
2018-01-20T19:12:55.373Z,67.10
2018-01-20T19:15:25.672Z,66.03
2018-01-20T19:17:56.245Z,70.30
2018-01-20T19:20:26.549Z,66.53
2018-01-20T19:24:11.096Z,66.57
2018-01-20T19:26:41.342Z,70.37
2018-01-20T19:29:12.726Z,72.37
2018-01-20T19:31:43.653Z,67.95
2018-01-20T19:34:13.988Z,67.47
2018-01-20T19:36:45.290Z,81.87
2018-01-20T19:39:15.497Z,82.60
2018-01-20T19:41:45.641Z,83.67
2018-01-20T19:44:15.804Z,77.22
2018-01-20T19:46:46.749Z,72.20
2018-01-20T19:49:18.085Z,76.07
2018-01-20T19:51:49.052Z,76.55
2018-01-20T19:54:19.309Z,76.27
2018-01-20T19:56:49.470Z,73.43
2018-01-20T19:59:20.522Z,84.37
2018-01-20T20:01:50.897Z,84.53
2018-01-20T20:04:21.486Z,107.63
2018-01-20T20:06:51.832Z,88.60
2018-01-20T20:09:26.001Z,90.80
2018-01-20T20:11:56.628Z,85.00
2018-01-20T20:14:26.786Z,76.10
2018-01-20T20:16:56.971Z,75.80
2018-01-20T20:19:27.605Z,77.68
2018-01-20T20:21:57.797Z,80.28
2018-01-20T20:24:28.093Z,81.60
2018-01-20T20:26:59.003Z,78.97
2018-01-20T20:29:29.165Z,71.90
2018-01-20T20:31:59.410Z,79.17
2018-01-20T20:34:30.698Z,94.73
2018-01-20T20:37:00.873Z,82.90
2018-01-20T20:39:32.741Z,84.27
2018-01-20T20:42:03.825Z,88.40
2018-01-20T20:44:34.144Z,83.20
2018-01-20T20:47:04.423Z,82.70
2018-01-20T20:49:35.696Z,85.50
2018-01-20T20:52:06.049Z,80.37
2018-01-20T20:54:36.457Z,87.10
2018-01-20T20:57:07.084Z,101.07
2018-01-20T20:59:38.241Z,86.53
2018-01-20T21:02:09.181Z,98.27
2018-01-20T21:04:39.734Z,100.70
2018-01-20T21:07:09.965Z,125.27
2018-01-20T21:09:40.949Z,114.90
2018-01-20T21:12:11.249Z,100.10
2018-01-20T21:14:41.485Z,91.13
2018-01-20T21:17:12.524Z,92.63
2018-01-20T21:19:43.077Z,106.68
2018-01-20T21:22:13.460Z,104.50
2018-01-20T21:24:43.750Z,96.03
2018-01-20T21:27:14.351Z,94.17
2018-01-20T21:29:45.534Z,89.33
2018-01-20T21:32:15.833Z,94.32
2018-01-20T21:34:46.036Z,96.57
2018-01-20T21:37:16.246Z,78.93
2018-01-20T21:40:01.633Z,76.45
2018-01-20T21:42:32.912Z,86.97
2018-01-20T21:45:03.764Z,79.68
2018-01-20T21:47:34.876Z,76.53
2018-01-20T21:50:07.401Z,83.07
2018-01-20T21:52:38.042Z,75.77
2018-01-20T21:55:08.349Z,91.70
2018-01-20T21:57:38.954Z,80.53
2018-01-20T22:00:10.805Z,78.72
2018-01-20T22:02:41.189Z,82.33
2018-01-20T22:05:11.821Z,81.20
2018-01-20T22:07:42.406Z,90.87
2018-01-20T22:10:12.680Z,74.15
2018-01-20T22:12:43.260Z,76.68
2018-01-20T22:15:14.301Z,73.53
2018-01-20T22:17:44.956Z,81.95
2018-01-20T22:20:15.849Z,84.87
2018-01-20T22:22:46.109Z,89.80
2018-01-20T22:25:16.381Z,79.57
2018-01-20T22:27:46.892Z,82.03
2018-01-20T22:30:17.176Z,80.87
2018-01-20T22:32:47.385Z,92.30
2018-01-20T22:35:18.410Z,91.97
2018-01-20T22:37:49.446Z,93.07
2018-01-20T22:40:20.777Z,84.00
2018-01-20T22:42:53.625Z,91.32
2018-01-20T22:45:23.798Z,80.07
2018-01-20T22:47:54.770Z,88.10
2018-01-20T22:50:31.641Z,73.85
2018-01-20T22:53:05.270Z,77.57
2018-01-20T22:55:37.788Z,91.75
2018-01-20T22:58:08.591Z,75.00
2018-01-20T23:00:44.280Z,76.43
2018-01-20T23:03:25.241Z,77.75
2018-01-20T23:05:55.958Z,92.85
2018-01-20T23:08:26.413Z,104.80
2018-01-20T23:10:57.530Z,83.05
2018-01-20T23:13:28.794Z,93.67
2018-01-20T23:16:00.087Z,82.50
2018-01-20T23:18:30.338Z,80.53
2018-01-20T23:21:01.412Z,77.32
2018-01-20T23:23:32.092Z,84.93
2018-01-20T23:26:02.321Z,101.27
2018-01-20T23:28:32.548Z,82.93
2018-01-20T23:31:02.729Z,97.17
2018-01-20T23:33:33.005Z,94.85
2018-01-20T23:36:04.034Z,99.20
2018-01-20T23:38:34.667Z,101.53
2018-01-20T23:41:04.938Z,93.33
2018-01-20T23:43:35.240Z,104.83
2018-01-20T23:46:06.801Z,93.27
2018-01-20T23:48:36.991Z,95.63
2018-01-20T23:51:07.224Z,87.83
2018-01-20T23:53:37.958Z,101.00
2018-01-20T23:56:08.956Z,100.03
2018-01-20T23:58:39.193Z,93.37
